Dobrodošli na spletni strani vremenske postaje Senovo. Vse informacije so informativnega značaja, saj vremenska postaja ni del državne mreže meteoroloških postaj. AKTUALNIH OBVESTIL NI.


Sneg/Led Od: 22-02-2018 00:00 Do: 23-02-2018 23:59 Opozorilo za: Sneg/Led Stopnja: Rumena info button
Veter Od: 22-02-2018 00:00 Do: 23:59 Opozorilo za: Veter Stopnja: Rumena info button

Pogled proti Armezu več informacij Pogled proti Armezu


Lisca več informacij Lisca


Radar strel več informacij blitzortung!


opozorilo za sneg/led več informacij rain snow radar


Obiščite še:

Template documentation
and downloads

And another site



Weather Underground, zgodovina - Tekstovno

Dnevni povzetek za Januar 26, 2018 Enote:  Obe    Angleško   Metrično
« Predhodni Dan
Naslednji Dan »
Dnevni Tedenski Mesečni Letni Po meri
  Višja: Nižja: Povprečje:
Temperatura: TemperatureC °F /  -17.8 °C 1.3 °F /  -17.1 °C 7 °F /  -13.9 °C
Točka rosišča: DewpointC °F /  -17.8 °C -2.0 °F /  -18.9 °C 1.8 °F /  -16.8 °C
Vlažnost: Humidity % 46 % 72 %
Hitrost vetra: WindSpeedKMH mph /  0 km/h - 3.1 mph /  5 km/h
Sunki vetra: WindSpeedGustKMH mph /  0 km/h - -
Veter:- - WSW
Zračni tlak: PressurehPa in /  0 hPa 1016.1 in /  34405.1 hPa -
Padavine: 0.0 in /  0 mm    
Historical Graphs
 
 
Tabelarni podarki za Januar 26, 2018
Čas Temperatura Točka rosišča Zračni tlak Veter Hitrost vetra Sunki vetra Vlažnost Intenziteta padavin (urna)
TemperatureC °F /  -17.8 °C DewpointC °F /  -17.8 °C PressurehPa in /  0 hPa Calm     Humidity % HourlyPrecipMM in /  0 mm
00:02 3.2 °F /  -16 °C 0.1 °F /  -17.7 °C 1018.8 in /  34496.6 hPa WSW 0.5 mph /  0.8 km/h 5.5 mph /  8.9 km/h 80 % 0.0 in /  0 mm
00:07 3.1 °F /  -16.1 °C 0.0 °F /  -17.8 °C 1018.8 in /  34496.6 hPa WSW 1.9 mph /  3.1 km/h 6.9 mph /  11.1 km/h 80 % 0.0 in /  0 mm
00:12 3.2 °F /  -16 °C 0.3 °F /  -17.6 °C 1018.8 in /  34496.6 hPa WSW 1.9 mph /  3.1 km/h 6.9 mph /  11.1 km/h 81 % 0.0 in /  0 mm
00:17 3.1 °F /  -16.1 °C 0.2 °F /  -17.7 °C 1018.8 in /  34496.6 hPa WNW 1.3 mph /  2.1 km/h 4.0 mph /  6.4 km/h 81 % 0.0 in /  0 mm
00:22 3.2 °F /  -16 °C 0.3 °F /  -17.6 °C 1018.8 in /  34496.6 hPa NW 1.1 mph /  1.8 km/h 7.6 mph /  12.2 km/h 81 % 0.0 in /  0 mm
00:27 3.2 °F /  -16 °C 0.4 °F /  -17.6 °C 1018.8 in /  34496.6 hPa NW 1.1 mph /  1.8 km/h 7.6 mph /  12.2 km/h 82 % 0.0 in /  0 mm
00:32 3.3 °F /  -15.9 °C 0.5 °F /  -17.5 °C 1018.8 in /  34496.6 hPa NW 0.8 mph /  1.3 km/h 4.3 mph /  6.9 km/h 82 % 0.0 in /  0 mm
00:37 3.3 °F /  -15.9 °C 0.5 °F /  -17.5 °C 1018.8 in /  34496.6 hPa West 1.0 mph /  1.6 km/h 5.0 mph /  8 km/h 82 % 0.0 in /  0 mm
00:42 3.3 °F /  -15.9 °C 0.7 °F /  -17.4 °C 1018.8 in /  34496.6 hPa SW 1.1 mph /  1.8 km/h 5.0 mph /  8 km/h 83 % 0.0 in /  0 mm
00:47 3.5 °F /  -15.8 °C 0.9 °F /  -17.3 °C 1018.8 in /  34496.6 hPa WNW 0.8 mph /  1.3 km/h 3.2 mph /  5.1 km/h 83 % 0.0 in /  0 mm
00:52 3.7 °F /  -15.7 °C 1.2 °F /  -17.1 °C 1018.8 in /  34496.6 hPa NNW 0.8 mph /  1.3 km/h 5.5 mph /  8.9 km/h 84 % 0.0 in /  0 mm
00:57 4.3 °F /  -15.4 °C 1.8 °F /  -16.8 °C 1018.8 in /  34496.6 hPa NW 2.3 mph /  3.7 km/h 11.6 mph /  18.7 km/h 84 % 0.0 in /  0 mm
01:02 4.7 °F /  -15.2 °C 2.4 °F /  -16.4 °C 1018.8 in /  34496.6 hPa SW 3.9 mph /  6.3 km/h 11.6 mph /  18.7 km/h 85 % 0.0 in /  0 mm
01:07 5.4 °F /  -14.8 °C 3.1 °F /  -16.1 °C 1018.8 in /  34496.6 hPa SW 5.3 mph /  8.5 km/h 12.6 mph /  20.3 km/h 85 % 0.0 in /  0 mm
01:12 5.9 °F /  -14.5 °C 3.6 °F /  -15.8 °C 1018.2 in /  34476.3 hPa SW 5.3 mph /  8.5 km/h 12.6 mph /  20.3 km/h 85 % 0.0 in /  0 mm
01:17 6.3 °F /  -14.3 °C 4.1 °F /  -15.5 °C 1018.2 in /  34476.3 hPa SSW 3.5 mph /  5.6 km/h 9.0 mph /  14.5 km/h 86 % 0.0 in /  0 mm
01:22 6.8 °F /  -14 °C 4.6 °F /  -15.2 °C 1018.2 in /  34476.3 hPa WSW 3.7 mph /  6 km/h 9.0 mph /  14.5 km/h 86 % 0.0 in /  0 mm
01:27 7.1 °F /  -13.8 °C 4.9 °F /  -15.1 °C 1018.2 in /  34476.3 hPa SW 4.5 mph /  7.2 km/h 9.0 mph /  14.5 km/h 86 % 0.0 in /  0 mm
01:32 7.3 °F /  -13.7 °C 5.1 °F /  -14.9 °C 1018.2 in /  34476.3 hPa SW 4.2 mph /  6.8 km/h 9.0 mph /  14.5 km/h 86 % 0.0 in /  0 mm
01:37 7.4 °F /  -13.7 °C 5.4 °F /  -14.8 °C 1018.2 in /  34476.3 hPa SW 3.1 mph /  5 km/h 7.6 mph /  12.2 km/h 87 % 0.0 in /  0 mm
01:42 7.5 °F /  -13.6 °C 5.5 °F /  -14.7 °C 1018.2 in /  34476.3 hPa SSW 1.4 mph /  2.3 km/h 6.1 mph /  9.8 km/h 87 % 0.0 in /  0 mm
01:47 7.6 °F /  -13.6 °C 5.6 °F /  -14.7 °C 1018.2 in /  34476.3 hPa South 2.9 mph /  4.7 km/h 13.0 mph /  20.9 km/h 87 % 0.0 in /  0 mm
01:52 7.7 °F /  -13.5 °C 5.7 °F /  -14.6 °C 1018.2 in /  34476.3 hPa South 4.7 mph /  7.6 km/h 13.0 mph /  20.9 km/h 87 % 0.0 in /  0 mm
01:57 7.8 °F /  -13.4 °C 5.8 °F /  -14.6 °C 1018.2 in /  34476.3 hPa South 2.9 mph /  4.7 km/h 9.0 mph /  14.5 km/h 87 % 0.0 in /  0 mm
02:02 7.8 °F /  -13.4 °C 5.8 °F /  -14.6 °C 1018.2 in /  34476.3 hPa SSE 1.0 mph /  1.6 km/h 4.0 mph /  6.4 km/h 87 % 0.0 in /  0 mm
02:07 7.9 °F /  -13.4 °C 5.9 °F /  -14.5 °C 1018.2 in /  34476.3 hPa South 2.1 mph /  3.4 km/h 6.9 mph /  11.1 km/h 87 % 0.0 in /  0 mm
02:12 7.9 °F /  -13.4 °C 5.9 °F /  -14.5 °C 1016.8 in /  34428.8 hPa SSW 2.6 mph /  4.2 km/h 6.9 mph /  11.1 km/h 87 % 0.0 in /  0 mm
02:17 7.8 °F /  -13.4 °C 5.8 °F /  -14.6 °C 1016.8 in /  34428.8 hPa SSW 1.6 mph /  2.6 km/h 4.3 mph /  6.9 km/h 87 % 0.0 in /  0 mm
02:22 7.9 °F /  -13.4 °C 5.9 °F /  -14.5 °C 1016.8 in /  34428.8 hPa South 2.7 mph /  4.3 km/h 5.5 mph /  8.9 km/h 87 % 0.0 in /  0 mm
02:27 7.8 °F /  -13.4 °C 5.6 °F /  -14.7 °C 1016.8 in /  34428.8 hPa South 2.9 mph /  4.7 km/h 6.9 mph /  11.1 km/h 86 % 0.0 in /  0 mm
02:32 7.8 °F /  -13.4 °C 5.6 °F /  -14.7 °C 1016.8 in /  34428.8 hPa South 3.1 mph /  5 km/h 6.9 mph /  11.1 km/h 86 % 0.0 in /  0 mm
02:37 7.7 °F /  -13.5 °C 5.5 °F /  -14.7 °C 1016.8 in /  34428.8 hPa South 3.5 mph /  5.6 km/h 6.4 mph /  10.3 km/h 86 % 0.0 in /  0 mm
02:42 7.5 °F /  -13.6 °C 5.3 °F /  -14.8 °C 1016.8 in /  34428.8 hPa South 2.6 mph /  4.2 km/h 6.4 mph /  10.3 km/h 86 % 0.0 in /  0 mm
02:47 7.4 °F /  -13.7 °C 5.1 °F /  -14.9 °C 1016.8 in /  34428.8 hPa SSE 1.4 mph /  2.3 km/h 7.6 mph /  12.2 km/h 85 % 0.0 in /  0 mm
02:52 7.4 °F /  -13.7 °C 5.1 °F /  -14.9 °C 1016.8 in /  34428.8 hPa South 1.1 mph /  1.8 km/h 7.6 mph /  12.2 km/h 85 % 0.0 in /  0 mm
02:57 7.4 °F /  -13.7 °C 5.1 °F /  -14.9 °C 1016.8 in /  34428.8 hPa SSE 0.6 mph /  1 km/h 4.7 mph /  7.6 km/h 85 % 0.0 in /  0 mm
03:02 7.3 °F /  -13.7 °C 4.9 °F /  -15.1 °C 1016.8 in /  34428.8 hPa SW 0.5 mph /  0.8 km/h 4.0 mph /  6.4 km/h 85 % 0.0 in /  0 mm
03:07 7.2 °F /  -13.8 °C 4.7 °F /  -15.2 °C 1016.8 in /  34428.8 hPa South 1.3 mph /  2.1 km/h 5.0 mph /  8 km/h 84 % 0.0 in /  0 mm
03:13 7.0 °F /  -13.9 °C 4.5 °F /  -15.3 °C 1016.8 in /  34428.8 hPa South 1.9 mph /  3.1 km/h 5.0 mph /  8 km/h 84 % 0.0 in /  0 mm
03:18 6.6 °F /  -14.1 °C 4.1 °F /  -15.5 °C 1016.8 in /  34428.8 hPa SW 1.1 mph /  1.8 km/h 4.7 mph /  7.6 km/h 84 % 0.0 in /  0 mm
03:23 6.3 °F /  -14.3 °C 3.8 °F /  -15.7 °C 1016.8 in /  34428.8 hPa SW 0.6 mph /  1 km/h 4.0 mph /  6.4 km/h 84 % 0.0 in /  0 mm
03:28 6.1 °F /  -14.4 °C 3.4 °F /  -15.9 °C 1016.8 in /  34428.8 hPa SW 1.0 mph /  1.6 km/h 2.6 mph /  4.2 km/h 83 % 0.0 in /  0 mm
03:33 5.7 °F /  -14.6 °C 3.1 °F /  -16.1 °C 1016.8 in /  34428.8 hPa WSW 1.0 mph /  1.6 km/h 4.3 mph /  6.9 km/h 83 % 0.0 in /  0 mm
03:38 5.4 °F /  -14.8 °C 2.7 °F /  -16.3 °C 1016.8 in /  34428.8 hPa WNW 1.1 mph /  1.8 km/h 4.3 mph /  6.9 km/h 83 % 0.0 in /  0 mm
03:43 5.3 °F /  -14.8 °C 2.7 °F /  -16.3 °C 1016.8 in /  34428.8 hPa NW 0.5 mph /  0.8 km/h 4.3 mph /  6.9 km/h 83 % 0.0 in /  0 mm
03:48 5.1 °F /  -14.9 °C 2.4 °F /  -16.4 °C 1016.8 in /  34428.8 hPa NW 1.1 mph /  1.8 km/h 4.7 mph /  7.6 km/h 83 % 0.0 in /  0 mm
03:53 5.0 °F /  -15 °C 2.3 °F /  -16.5 °C 1016.8 in /  34428.8 hPa NW 1.4 mph /  2.3 km/h 4.7 mph /  7.6 km/h 83 % 0.0 in /  0 mm
03:58 4.9 °F /  -15.1 °C 2.3 °F /  -16.5 °C 1016.8 in /  34428.8 hPa WNW 0.5 mph /  0.8 km/h 3.2 mph /  5.1 km/h 83 % 0.0 in /  0 mm
04:03 4.7 °F /  -15.2 °C 2.1 °F /  -16.6 °C 1016.8 in /  34428.8 hPa West 0.2 mph /  0.3 km/h 2.6 mph /  4.2 km/h 83 % 0.0 in /  0 mm
04:08 4.6 °F /  -15.2 °C 1.9 °F /  -16.7 °C 1016.8 in /  34428.8 hPa WNW 0.3 mph /  0.5 km/h 3.5 mph /  5.6 km/h 83 % 0.0 in /  0 mm
04:13 4.6 °F /  -15.2 °C 1.9 °F /  -16.7 °C 1016.8 in /  34428.8 hPa WNW 0.5 mph /  0.8 km/h 3.5 mph /  5.6 km/h 83 % 0.0 in /  0 mm
04:18 4.5 °F /  -15.3 °C 1.9 °F /  -16.7 °C 1016.8 in /  34428.8 hPa North 0.2 mph /  0.3 km/h   83 % 0.0 in /  0 mm
04:23 4.5 °F /  -15.3 °C 1.9 °F /  -16.7 °C 1016.8 in /  34428.8 hPa Calm   2.6 mph /  4.2 km/h 83 % 0.0 in /  0 mm
04:28 4.5 °F /  -15.3 °C 2.1 °F /  -16.6 °C 1016.1 in /  34405.1 hPa NNW 0.2 mph /  0.3 km/h 2.6 mph /  4.2 km/h 84 % 0.0 in /  0 mm
04:33 4.5 °F /  -15.3 °C 2.1 °F /  -16.6 °C 1016.1 in /  34405.1 hPa WNW 0.3 mph /  0.5 km/h 3.5 mph /  5.6 km/h 84 % 0.0 in /  0 mm
04:38 4.4 °F /  -15.3 °C 1.9 °F /  -16.7 °C 1016.1 in /  34405.1 hPa WNW 0.2 mph /  0.3 km/h 3.5 mph /  5.6 km/h 84 % 0.0 in /  0 mm
04:43 4.4 °F /  -15.3 °C 1.9 °F /  -16.7 °C 1016.8 in /  34428.8 hPa Calm     84 % 0.0 in /  0 mm
04:48 4.5 °F /  -15.3 °C 2.1 °F /  -16.6 °C 1016.8 in /  34428.8 hPa Calm     84 % 0.0 in /  0 mm
04:53 4.5 °F /  -15.3 °C 2.2 °F /  -16.6 °C 1016.8 in /  34428.8 hPa Calm     85 % 0.0 in /  0 mm
04:58 4.5 °F /  -15.3 °C 2.2 °F /  -16.6 °C 1016.8 in /  34428.8 hPa WSW 0.6 mph /  1 km/h 4.7 mph /  7.6 km/h 85 % 0.0 in /  0 mm
05:03 4.4 °F /  -15.3 °C 2.1 °F /  -16.6 °C 1016.8 in /  34428.8 hPa WSW 1.9 mph /  3.1 km/h 6.1 mph /  9.8 km/h 85 % 0.0 in /  0 mm
05:08 4.4 °F /  -15.3 °C 2.1 °F /  -16.6 °C 1016.8 in /  34428.8 hPa SW 3.7 mph /  6 km/h 6.4 mph /  10.3 km/h 85 % 0.0 in /  0 mm
05:13 4.4 °F /  -15.3 °C 2.1 °F /  -16.6 °C 1016.8 in /  34428.8 hPa SW 3.2 mph /  5.1 km/h 6.4 mph /  10.3 km/h 85 % 0.0 in /  0 mm
05:18 4.3 °F /  -15.4 °C 2.0 °F /  -16.7 °C 1016.8 in /  34428.8 hPa West 1.0 mph /  1.6 km/h 4.3 mph /  6.9 km/h 85 % 0.0 in /  0 mm
05:23 4.3 °F /  -15.4 °C 2.2 °F /  -16.6 °C 1016.8 in /  34428.8 hPa NW 0.3 mph /  0.5 km/h 2.6 mph /  4.2 km/h 86 % 0.0 in /  0 mm
05:28 4.3 °F /  -15.4 °C 2.2 °F /  -16.6 °C 1016.1 in /  34405.1 hPa NW 0.3 mph /  0.5 km/h 2.6 mph /  4.2 km/h 86 % 0.0 in /  0 mm
05:33 4.3 °F /  -15.4 °C 2.2 °F /  -16.6 °C 1016.1 in /  34405.1 hPa Calm     86 % 0.0 in /  0 mm
05:38 4.2 °F /  -15.4 °C 2.1 °F /  -16.6 °C 1016.1 in /  34405.1 hPa Calm     86 % 0.0 in /  0 mm
05:43 4.1 °F /  -15.5 °C 1.9 °F /  -16.7 °C 1016.8 in /  34428.8 hPa Calm     86 % 0.0 in /  0 mm
05:48 4.1 °F /  -15.5 °C 1.9 °F /  -16.7 °C 1016.8 in /  34428.8 hPa NW 0.2 mph /  0.3 km/h 3.2 mph /  5.1 km/h 86 % 0.0 in /  0 mm
05:53 4.1 °F /  -15.5 °C 1.9 °F /  -16.7 °C 1016.8 in /  34428.8 hPa WNW 0.5 mph /  0.8 km/h 3.5 mph /  5.6 km/h 86 % 0.0 in /  0 mm
05:58 4.0 °F /  -15.6 °C 1.9 °F /  -16.7 °C 1016.8 in /  34428.8 hPa West 0.2 mph /  0.3 km/h 3.5 mph /  5.6 km/h 86 % 0.0 in /  0 mm
06:03 4.0 °F /  -15.6 °C 2.1 °F /  -16.6 °C 1016.8 in /  34428.8 hPa Calm     87 % 0.0 in /  0 mm
06:08 4.0 °F /  -15.6 °C 2.1 °F /  -16.6 °C 1016.8 in /  34428.8 hPa Calm     87 % 0.0 in /  0 mm
06:13 3.9 °F /  -15.6 °C 1.9 °F /  -16.7 °C 1016.8 in /  34428.8 hPa Calm     87 % 0.0 in /  0 mm
06:18 3.8 °F /  -15.7 °C 1.8 °F /  -16.8 °C 1016.8 in /  34428.8 hPa Calm     87 % 0.0 in /  0 mm
06:23 3.8 °F /  -15.7 °C 1.8 °F /  -16.8 °C 1016.8 in /  34428.8 hPa Calm     87 % 0.0 in /  0 mm
06:28 3.7 °F /  -15.7 °C 1.7 °F /  -16.8 °C 1016.8 in /  34428.8 hPa Calm     87 % 0.0 in /  0 mm
06:33 3.7 °F /  -15.7 °C 1.7 °F /  -16.8 °C 1016.8 in /  34428.8 hPa Calm     87 % 0.0 in /  0 mm
06:38 3.7 °F /  -15.7 °C 1.9 °F /  -16.7 °C 1016.8 in /  34428.8 hPa Calm     88 % 0.0 in /  0 mm
06:43 3.6 °F /  -15.8 °C 1.8 °F /  -16.8 °C 1016.8 in /  34428.8 hPa Calm     88 % 0.0 in /  0 mm
06:49 3.6 °F /  -15.8 °C 1.8 °F /  -16.8 °C 1016.8 in /  34428.8 hPa Calm     88 % 0.0 in /  0 mm
06:53 3.6 °F /  -15.8 °C 1.8 °F /  -16.8 °C 1016.8 in /  34428.8 hPa Calm     88 % 0.0 in /  0 mm
06:59 3.6 °F /  -15.8 °C 1.8 °F /  -16.8 °C 1018.2 in /  34476.3 hPa NW 0.8 mph /  1.3 km/h 4.3 mph /  6.9 km/h 88 % 0.0 in /  0 mm
07:03 3.7 °F /  -15.7 °C 1.9 °F /  -16.7 °C 1018.2 in /  34476.3 hPa NW 0.8 mph /  1.3 km/h 4.3 mph /  6.9 km/h 88 % 0.0 in /  0 mm
07:09 3.7 °F /  -15.7 °C 1.9 °F /  -16.7 °C 1018.2 in /  34476.3 hPa Calm     88 % 0.0 in /  0 mm
07:13 3.7 °F /  -15.7 °C 1.9 °F /  -16.7 °C 1018.2 in /  34476.3 hPa NW 0.6 mph /  1 km/h 4.0 mph /  6.4 km/h 88 % 0.0 in /  0 mm
07:19 3.7 °F /  -15.7 °C 1.9 °F /  -16.7 °C 1018.2 in /  34476.3 hPa NW 0.6 mph /  1 km/h 4.0 mph /  6.4 km/h 88 % 0.0 in /  0 mm
07:23 3.7 °F /  -15.7 °C 1.9 °F /  -16.7 °C 1018.2 in /  34476.3 hPa Calm     88 % 0.0 in /  0 mm
07:29 3.7 °F /  -15.7 °C 2.1 °F /  -16.6 °C 1018.2 in /  34476.3 hPa Calm     89 % 0.0 in /  0 mm
07:34 3.7 °F /  -15.7 °C 2.1 °F /  -16.6 °C 1018.2 in /  34476.3 hPa Calm     89 % 0.0 in /  0 mm
07:39 3.7 °F /  -15.7 °C 2.1 °F /  -16.6 °C 1018.2 in /  34476.3 hPa Calm     89 % 0.0 in /  0 mm
07:44 3.8 °F /  -15.7 °C 2.2 °F /  -16.6 °C 1018.2 in /  34476.3 hPa Calm     89 % 0.0 in /  0 mm
07:49 3.8 °F /  -15.7 °C 2.2 °F /  -16.6 °C 1018.2 in /  34476.3 hPa Calm     89 % 0.0 in /  0 mm
07:54 3.8 °F /  -15.7 °C 2.2 °F /  -16.6 °C 1018.2 in /  34476.3 hPa Calm     89 % 0.0 in /  0 mm
07:59 3.9 °F /  -15.6 °C 2.4 °F /  -16.4 °C 1018.2 in /  34476.3 hPa Calm     90 % 0.0 in /  0 mm
08:04 3.9 °F /  -15.6 °C 2.4 °F /  -16.4 °C 1018.2 in /  34476.3 hPa Calm     90 % 0.0 in /  0 mm
08:09 4.0 °F /  -15.6 °C 2.5 °F /  -16.4 °C 1018.2 in /  34476.3 hPa Calm     90 % 0.0 in /  0 mm
08:14 4.0 °F /  -15.6 °C 2.5 °F /  -16.4 °C 1018.8 in /  34496.6 hPa Calm     90 % 0.0 in /  0 mm
08:19 4.1 °F /  -15.5 °C 2.6 °F /  -16.3 °C 1018.8 in /  34496.6 hPa Calm     90 % 0.0 in /  0 mm
08:24 4.3 °F /  -15.4 °C 2.8 °F /  -16.2 °C 1018.8 in /  34496.6 hPa SSE 0.2 mph /  0.3 km/h 3.5 mph /  5.6 km/h 90 % 0.0 in /  0 mm
08:29 4.4 °F /  -15.3 °C 2.9 °F /  -16.2 °C 1018.8 in /  34496.6 hPa SSE 0.2 mph /  0.3 km/h 3.5 mph /  5.6 km/h 90 % 0.0 in /  0 mm
08:34 4.6 °F /  -15.2 °C 3.3 °F /  -15.9 °C 1018.8 in /  34496.6 hPa Calm     91 % 0.0 in /  0 mm
08:39 4.7 °F /  -15.2 °C 3.3 °F /  -15.9 °C 1018.8 in /  34496.6 hPa Calm     91 % 0.0 in /  0 mm
08:44 4.8 °F /  -15.1 °C 3.4 °F /  -15.9 °C 1018.8 in /  34496.6 hPa Calm     91 % 0.0 in /  0 mm
08:49 5.0 °F /  -15 °C 3.7 °F /  -15.7 °C 1018.8 in /  34496.6 hPa Calm     91 % 0.0 in /  0 mm
08:54 5.1 °F /  -14.9 °C 3.8 °F /  -15.7 °C 1018.8 in /  34496.6 hPa Calm     91 % 0.0 in /  0 mm
08:59 5.3 °F /  -14.8 °C 3.9 °F /  -15.6 °C 1018.8 in /  34496.6 hPa Calm     91 % 0.0 in /  0 mm
09:04 5.5 °F /  -14.7 °C 4.3 °F /  -15.4 °C 1018.8 in /  34496.6 hPa Calm     92 % 0.0 in /  0 mm
09:09 5.7 °F /  -14.6 °C 4.5 °F /  -15.3 °C 1018.8 in /  34496.6 hPa Calm     92 % 0.0 in /  0 mm
09:14 6.0 °F /  -14.4 °C 4.8 °F /  -15.1 °C 1018.8 in /  34496.6 hPa Calm     92 % 0.0 in /  0 mm
09:19 6.3 °F /  -14.3 °C 5.1 °F /  -14.9 °C 1018.8 in /  34496.6 hPa Calm     92 % 0.0 in /  0 mm
09:24 6.5 °F /  -14.2 °C 5.3 °F /  -14.8 °C 1018.8 in /  34496.6 hPa Calm   2.6 mph /  4.2 km/h 92 % 0.0 in /  0 mm
09:29 7.1 °F /  -13.8 °C 5.9 °F /  -14.5 °C 1018.8 in /  34496.6 hPa ESE 0.5 mph /  0.8 km/h 5.8 mph /  9.3 km/h 92 % 0.0 in /  0 mm
09:34 7.7 °F /  -13.5 °C 6.7 °F /  -14.1 °C 1018.8 in /  34496.6 hPa SSW 2.7 mph /  4.3 km/h 8.7 mph /  14 km/h 93 % 0.0 in /  0 mm
09:39 8.2 °F /  -13.2 °C 7.0 °F /  -13.9 °C 1018.8 in /  34496.6 hPa SW 4.5 mph /  7.2 km/h 8.7 mph /  14 km/h 92 % 0.0 in /  0 mm
09:44 8.8 °F /  -12.9 °C 7.7 °F /  -13.5 °C 1018.8 in /  34496.6 hPa SW 4.0 mph /  6.4 km/h 7.9 mph /  12.7 km/h 93 % 0.0 in /  0 mm
09:49 9.3 °F /  -12.6 °C 8.2 °F /  -13.2 °C 1018.8 in /  34496.6 hPa SW 4.7 mph /  7.6 km/h 9.3 mph /  15 km/h 93 % 0.0 in /  0 mm
09:54 9.6 °F /  -12.4 °C 8.5 °F /  -13.1 °C 1018.8 in /  34496.6 hPa WSW 5.1 mph /  8.2 km/h 13.7 mph /  22 km/h 93 % 0.0 in /  0 mm
09:59 10.1 °F /  -12.2 °C 8.8 °F /  -12.9 °C 1018.8 in /  34496.6 hPa West 7.1 mph /  11.4 km/h 13.7 mph /  22 km/h 92 % 0.0 in /  0 mm
10:04 10.4 °F /  -12 °C 9.0 °F /  -12.8 °C 1018.8 in /  34496.6 hPa West 6.8 mph /  10.9 km/h 13.7 mph /  22 km/h 91 % 0.0 in /  0 mm
10:09 10.6 °F /  -11.9 °C 9.0 °F /  -12.8 °C 1018.8 in /  34496.6 hPa WNW 5.6 mph /  9 km/h 16.6 mph /  26.7 km/h 90 % 0.0 in /  0 mm
10:14 10.8 °F /  -11.8 °C 9.1 °F /  -12.7 °C 1019.9 in /  34533.8 hPa West 5.6 mph /  9 km/h 16.6 mph /  26.7 km/h 89 % 0.0 in /  0 mm
10:19 11.0 °F /  -11.7 °C 9.1 °F /  -12.7 °C 1019.9 in /  34533.8 hPa WSW 5.0 mph /  8 km/h 14.0 mph /  22.5 km/h 88 % 0.0 in /  0 mm
10:24 11.2 °F /  -11.6 °C 8.9 °F /  -12.8 °C 1019.9 in /  34533.8 hPa West 6.0 mph /  9.7 km/h 14.0 mph /  22.5 km/h 86 % 0.0 in /  0 mm
10:29 11.4 °F /  -11.4 °C 8.9 °F /  -12.8 °C 1018.8 in /  34496.6 hPa West 7.6 mph /  12.2 km/h 18.3 mph /  29.5 km/h 85 % 0.0 in /  0 mm
10:34 11.5 °F /  -11.4 °C 8.7 °F /  -12.9 °C 1018.8 in /  34496.6 hPa WNW 7.6 mph /  12.2 km/h 18.3 mph /  29.5 km/h 83 % 0.0 in /  0 mm
10:39 11.7 °F /  -11.3 °C 8.6 °F /  -13 °C 1018.8 in /  34496.6 hPa NW 7.6 mph /  12.2 km/h 16.6 mph /  26.7 km/h 81 % 0.0 in /  0 mm
10:44 11.8 °F /  -11.2 °C 8.3 °F /  -13.2 °C 1018.8 in /  34496.6 hPa NW 8.2 mph /  13.2 km/h 16.6 mph /  26.7 km/h 79 % 0.0 in /  0 mm
10:49 12.1 °F /  -11.1 °C 8.0 °F /  -13.3 °C 1018.8 in /  34496.6 hPa WSW 6.6 mph /  10.6 km/h 17.7 mph /  28.5 km/h 76 % 0.0 in /  0 mm
10:54 12.3 °F /  -10.9 °C 7.8 °F /  -13.4 °C 1018.8 in /  34496.6 hPa WSW 5.8 mph /  9.3 km/h 18.3 mph /  29.5 km/h 74 % 0.0 in /  0 mm
10:59 12.3 °F /  -10.9 °C 7.6 °F /  -13.6 °C 1018.8 in /  34496.6 hPa WSW 8.2 mph /  13.2 km/h 32.0 mph /  51.5 km/h 73 % 0.0 in /  0 mm
11:04 12.4 °F /  -10.9 °C 7.3 °F /  -13.7 °C 1018.8 in /  34496.6 hPa WSW 8.5 mph /  13.7 km/h 32.0 mph /  51.5 km/h 71 % 0.0 in /  0 mm
11:09 12.5 °F /  -10.8 °C 6.8 °F /  -14 °C 1018.8 in /  34496.6 hPa West 9.7 mph /  15.6 km/h 31.7 mph /  51 km/h 68 % 0.0 in /  0 mm
11:14 12.4 °F /  -10.9 °C 6.2 °F /  -14.3 °C 1018.8 in /  34496.6 hPa West 14.0 mph /  22.5 km/h 31.7 mph /  51 km/h 66 % 0.0 in /  0 mm
11:19 12.5 °F /  -10.8 °C 5.9 °F /  -14.5 °C 1018.8 in /  34496.6 hPa WNW 12.7 mph /  20.4 km/h 31.7 mph /  51 km/h 64 % 0.0 in /  0 mm
11:24 12.5 °F /  -10.8 °C 5.2 °F /  -14.9 °C 1018.8 in /  34496.6 hPa WNW 10.0 mph /  16.1 km/h 19.8 mph /  31.9 km/h 61 % 0.0 in /  0 mm
11:29 12.6 °F /  -10.8 °C 5.1 °F /  -14.9 °C 1018.8 in /  34496.6 hPa WNW 10.1 mph /  16.3 km/h 23.8 mph /  38.3 km/h 60 % 0.0 in /  0 mm
11:34 12.6 °F /  -10.8 °C 4.8 °F /  -15.1 °C 1018.8 in /  34496.6 hPa West 8.8 mph /  14.2 km/h 23.8 mph /  38.3 km/h 59 % 0.0 in /  0 mm
11:39 12.6 °F /  -10.8 °C 4.3 °F /  -15.4 °C 1018.8 in /  34496.6 hPa West 8.8 mph /  14.2 km/h 22.7 mph /  36.5 km/h 57 % 0.0 in /  0 mm
11:44 12.6 °F /  -10.8 °C 4.1 °F /  -15.5 °C 1018.8 in /  34496.6 hPa West 10.9 mph /  17.5 km/h 23.8 mph /  38.3 km/h 56 % 0.0 in /  0 mm
11:49 12.6 °F /  -10.8 °C 3.8 °F /  -15.7 °C 1018.8 in /  34496.6 hPa WSW 10.3 mph /  16.6 km/h 23.8 mph /  38.3 km/h 55 % 0.0 in /  0 mm
11:54 12.7 °F /  -10.7 °C 3.6 °F /  -15.8 °C 1018.8 in /  34496.6 hPa West 10.1 mph /  16.3 km/h 20.9 mph /  33.6 km/h 54 % 0.0 in /  0 mm
11:59 12.6 °F /  -10.8 °C 3.6 °F /  -15.8 °C 1018.8 in /  34496.6 hPa West 9.8 mph /  15.8 km/h 25.3 mph /  40.7 km/h 54 % 0.0 in /  0 mm
12:04 12.7 °F /  -10.7 °C 3.3 °F /  -15.9 °C 1018.8 in /  34496.6 hPa WSW 9.8 mph /  15.8 km/h 25.3 mph /  40.7 km/h 53 % 0.0 in /  0 mm
12:09 12.8 °F /  -10.7 °C 3.2 °F /  -16 °C 1018.8 in /  34496.6 hPa West 10.9 mph /  17.5 km/h 21.6 mph /  34.8 km/h 52 % 0.0 in /  0 mm
12:14 12.8 °F /  -10.7 °C 3.2 °F /  -16 °C 1018.8 in /  34496.6 hPa West 9.8 mph /  15.8 km/h 35.6 mph /  57.3 km/h 52 % 0.0 in /  0 mm
12:19 12.7 °F /  -10.7 °C 2.8 °F /  -16.2 °C 1018.8 in /  34496.6 hPa West 10.5 mph /  16.9 km/h 35.6 mph /  57.3 km/h 51 % 0.0 in /  0 mm
12:24 12.8 °F /  -10.7 °C 2.6 °F /  -16.3 °C 1018.8 in /  34496.6 hPa West 11.1 mph /  17.9 km/h 25.6 mph /  41.2 km/h 50 % 0.0 in /  0 mm
12:29 12.9 °F /  -10.6 °C 2.7 °F /  -16.3 °C 1018.8 in /  34496.6 hPa SW 9.3 mph /  15 km/h 19.5 mph /  31.4 km/h 50 % 0.0 in /  0 mm
12:34 13.0 °F /  -10.6 °C 2.8 °F /  -16.2 °C 1018.8 in /  34496.6 hPa WSW 8.8 mph /  14.2 km/h 24.8 mph /  39.9 km/h 50 % 0.0 in /  0 mm
12:39 13.1 °F /  -10.5 °C 2.6 °F /  -16.3 °C 1018.8 in /  34496.6 hPa SW 10.8 mph /  17.4 km/h 24.8 mph /  39.9 km/h 49 % 0.0 in /  0 mm
12:44 13.0 °F /  -10.6 °C 2.5 °F /  -16.4 °C 1018.8 in /  34496.6 hPa SW 12.4 mph /  20 km/h 23.8 mph /  38.3 km/h 49 % 0.0 in /  0 mm
12:49 13.1 °F /  -10.5 °C 2.6 °F /  -16.3 °C 1018.8 in /  34496.6 hPa WSW 10.1 mph /  16.3 km/h 21.2 mph /  34.1 km/h 49 % 0.0 in /  0 mm
12:54 13.2 °F /  -10.4 °C 2.4 °F /  -16.4 °C 1018.8 in /  34496.6 hPa WSW 8.2 mph /  13.2 km/h 23.8 mph /  38.3 km/h 48 % 0.0 in /  0 mm
12:59 13.2 °F /  -10.4 °C 2.4 °F /  -16.4 °C 1018.8 in /  34496.6 hPa WSW 9.3 mph /  15 km/h 24.8 mph /  39.9 km/h 48 % 0.0 in /  0 mm
13:04 13.2 °F /  -10.4 °C 2.4 °F /  -16.4 °C 1018.8 in /  34496.6 hPa WSW 9.5 mph /  15.3 km/h 24.8 mph /  39.9 km/h 48 % 0.0 in /  0 mm
13:09 13.2 °F /  -10.4 °C 2.1 °F /  -16.6 °C 1018.8 in /  34496.6 hPa WSW 9.3 mph /  15 km/h 24.8 mph /  39.9 km/h 47 % 0.0 in /  0 mm
13:14 13.2 °F /  -10.4 °C 2.1 °F /  -16.6 °C 1018.2 in /  34476.3 hPa West 9.8 mph /  15.8 km/h 23.8 mph /  38.3 km/h 47 % 0.0 in /  0 mm
13:19 13.2 °F /  -10.4 °C 2.1 °F /  -16.6 °C 1018.2 in /  34476.3 hPa WSW 9.0 mph /  14.5 km/h 23.8 mph /  38.3 km/h 47 % 0.0 in /  0 mm
13:24 13.2 °F /  -10.4 °C 2.1 °F /  -16.6 °C 1018.2 in /  34476.3 hPa WSW 9.3 mph /  15 km/h 16.6 mph /  26.7 km/h 47 % 0.0 in /  0 mm
13:29 13.2 °F /  -10.4 °C 1.8 °F /  -16.8 °C 1018.8 in /  34496.6 hPa WSW 9.5 mph /  15.3 km/h 16.6 mph /  26.7 km/h 46 % 0.0 in /  0 mm
13:34 13.2 °F /  -10.4 °C 1.8 °F /  -16.8 °C 1018.8 in /  34496.6 hPa West 7.7 mph /  12.4 km/h 19.1 mph /  30.7 km/h 46 % 0.0 in /  0 mm
13:39 13.2 °F /  -10.4 °C 1.8 °F /  -16.8 °C 1018.8 in /  34496.6 hPa WSW 7.9 mph /  12.7 km/h 19.1 mph /  30.7 km/h 46 % 0.0 in /  0 mm
13:44 13.1 °F /  -10.5 °C 1.7 °F /  -16.8 °C 1018.8 in /  34496.6 hPa West 9.5 mph /  15.3 km/h 19.5 mph /  31.4 km/h 46 % 0.0 in /  0 mm
13:49 13.0 °F /  -10.6 °C 1.6 °F /  -16.9 °C 1018.8 in /  34496.6 hPa WSW 9.7 mph /  15.6 km/h 19.5 mph /  31.4 km/h 46 % 0.0 in /  0 mm
13:54 13.0 °F /  -10.6 °C 1.6 °F /  -16.9 °C 1018.8 in /  34496.6 hPa WSW 8.0 mph /  12.9 km/h 15.4 mph /  24.8 km/h 46 % 0.0 in /  0 mm
13:59 12.9 °F /  -10.6 °C 1.6 °F /  -16.9 °C 1018.8 in /  34496.6 hPa West 8.0 mph /  12.9 km/h 23.0 mph /  37 km/h 46 % 0.0 in /  0 mm
14:04 12.9 °F /  -10.6 °C 1.6 °F /  -16.9 °C 1018.8 in /  34496.6 hPa WSW 7.6 mph /  12.2 km/h 23.0 mph /  37 km/h 46 % 0.0 in /  0 mm
14:09 12.9 °F /  -10.6 °C 1.6 °F /  -16.9 °C 1018.8 in /  34496.6 hPa SW 6.4 mph /  10.3 km/h 19.8 mph /  31.9 km/h 46 % 0.0 in /  0 mm
14:14 12.8 °F /  -10.7 °C 1.4 °F /  -17 °C 1018.8 in /  34496.6 hPa SW 8.2 mph /  13.2 km/h 19.8 mph /  31.9 km/h 46 % 0.0 in /  0 mm
14:19 12.7 °F /  -10.7 °C 1.4 °F /  -17 °C 1018.8 in /  34496.6 hPa WSW 10.0 mph /  16.1 km/h 27.7 mph /  44.6 km/h 46 % 0.0 in /  0 mm
14:24 12.6 °F /  -10.8 °C 1.3 °F /  -17.1 °C 1018.8 in /  34496.6 hPa WSW 8.4 mph /  13.5 km/h 27.7 mph /  44.6 km/h 46 % 0.0 in /  0 mm
14:29 12.6 °F /  -10.8 °C 1.3 °F /  -17.1 °C 1018.8 in /  34496.6 hPa West 7.1 mph /  11.4 km/h 17.2 mph /  27.7 km/h 46 % 0.0 in /  0 mm
14:34 12.5 °F /  -10.8 °C 1.2 °F /  -17.1 °C 1018.8 in /  34496.6 hPa WSW 7.4 mph /  11.9 km/h 20.6 mph /  33.2 km/h 46 % 0.0 in /  0 mm
14:39 12.5 °F /  -10.8 °C 1.2 °F /  -17.1 °C 1018.8 in /  34496.6 hPa SW 8.4 mph /  13.5 km/h 20.6 mph /  33.2 km/h 46 % 0.0 in /  0 mm
14:44 12.4 °F /  -10.9 °C 1.1 °F /  -17.2 °C 1018.8 in /  34496.6 hPa WSW 8.5 mph /  13.7 km/h 16.9 mph /  27.2 km/h 46 % 0.0 in /  0 mm
14:49 12.4 °F /  -10.9 °C 1.1 °F /  -17.2 °C 1018.8 in /  34496.6 hPa WSW 7.4 mph /  11.9 km/h 16.9 mph /  27.2 km/h 46 % 0.0 in /  0 mm
14:54 12.3 °F /  -10.9 °C 1.0 °F /  -17.2 °C 1018.8 in /  34496.6 hPa WSW 5.1 mph /  8.2 km/h 10.1 mph /  16.3 km/h 46 % 0.0 in /  0 mm
14:59 12.2 °F /  -11 °C 0.9 °F /  -17.3 °C 1018.2 in /  34476.3 hPa SSW 5.1 mph /  8.2 km/h 13.0 mph /  20.9 km/h 46 % 0.0 in /  0 mm
15:04 12.2 °F /  -11 °C 1.2 °F /  -17.1 °C 1018.2 in /  34476.3 hPa SSW 7.7 mph /  12.4 km/h 13.0 mph /  20.9 km/h 47 % 0.0 in /  0 mm
15:09 12.1 °F /  -11.1 °C 1.1 °F /  -17.2 °C 1018.2 in /  34476.3 hPa SSW 7.9 mph /  12.7 km/h 16.9 mph /  27.2 km/h 47 % 0.0 in /  0 mm
15:14 12.1 °F /  -11.1 °C 1.1 °F /  -17.2 °C 1018.8 in /  34496.6 hPa WSW 7.4 mph /  11.9 km/h 16.9 mph /  27.2 km/h 47 % 0.0 in /  0 mm
15:19 12.1 °F /  -11.1 °C 1.1 °F /  -17.2 °C 1018.8 in /  34496.6 hPa West 7.6 mph /  12.2 km/h 15.4 mph /  24.8 km/h 47 % 0.0 in /  0 mm
15:24 12.1 °F /  -11.1 °C 1.1 °F /  -17.2 °C 1018.8 in /  34496.6 hPa WSW 6.3 mph /  10.1 km/h 15.4 mph /  24.8 km/h 47 % 0.0 in /  0 mm
15:29 12.0 °F /  -11.1 °C 1.0 °F /  -17.2 °C 1018.8 in /  34496.6 hPa SW 5.5 mph /  8.9 km/h 13.0 mph /  20.9 km/h 47 % 0.0 in /  0 mm
15:34 11.9 °F /  -11.2 °C 1.2 °F /  -17.1 °C 1018.8 in /  34496.6 hPa SSW 6.6 mph /  10.6 km/h 13.0 mph /  20.9 km/h 48 % 0.0 in /  0 mm
15:39 11.8 °F /  -11.2 °C 1.1 °F /  -17.2 °C 1018.8 in /  34496.6 hPa SW 6.1 mph /  9.8 km/h 13.0 mph /  20.9 km/h 48 % 0.0 in /  0 mm
15:44 11.7 °F /  -11.3 °C 1.1 °F /  -17.2 °C 1018.8 in /  34496.6 hPa West 4.8 mph /  7.7 km/h 10.5 mph /  16.9 km/h 48 % 0.0 in /  0 mm
15:49 11.6 °F /  -11.3 °C 0.9 °F /  -17.3 °C 1018.8 in /  34496.6 hPa SW 6.0 mph /  9.7 km/h 13.0 mph /  20.9 km/h 48 % 0.0 in /  0 mm
15:54 11.6 °F /  -11.3 °C 0.9 °F /  -17.3 °C 1018.8 in /  34496.6 hPa SW 6.6 mph /  10.6 km/h 13.0 mph /  20.9 km/h 48 % 0.0 in /  0 mm
15:59 11.5 °F /  -11.4 °C 0.8 °F /  -17.3 °C 1018.2 in /  34476.3 hPa SW 6.0 mph /  9.7 km/h 11.9 mph /  19.2 km/h 48 % 0.0 in /  0 mm
16:04 11.5 °F /  -11.4 °C 0.8 °F /  -17.3 °C 1018.2 in /  34476.3 hPa SSW 6.3 mph /  10.1 km/h 12.2 mph /  19.6 km/h 48 % 0.0 in /  0 mm
16:09 11.4 °F /  -11.4 °C 0.8 °F /  -17.3 °C 1018.2 in /  34476.3 hPa SW 6.1 mph /  9.8 km/h 15.8 mph /  25.4 km/h 48 % 0.0 in /  0 mm
16:14 11.3 °F /  -11.5 °C 0.7 °F /  -17.4 °C 1018.8 in /  34496.6 hPa SW 6.4 mph /  10.3 km/h 16.3 mph /  26.2 km/h 48 % 0.0 in /  0 mm
16:19 11.2 °F /  -11.6 °C 0.6 °F /  -17.4 °C 1018.8 in /  34496.6 hPa SSW 7.2 mph /  11.6 km/h 16.3 mph /  26.2 km/h 48 % 0.0 in /  0 mm
16:24 11.2 °F /  -11.6 °C 0.6 °F /  -17.4 °C 1018.8 in /  34496.6 hPa SW 7.4 mph /  11.9 km/h 14.0 mph /  22.5 km/h 48 % 0.0 in /  0 mm
16:29 11.1 °F /  -11.6 °C 0.8 °F /  -17.3 °C 1018.8 in /  34496.6 hPa SW 8.7 mph /  14 km/h 23.0 mph /  37 km/h 49 % 0.0 in /  0 mm
16:34 11.0 °F /  -11.7 °C 0.7 °F /  -17.4 °C 1018.8 in /  34496.6 hPa SW 8.2 mph /  13.2 km/h 23.0 mph /  37 km/h 49 % 0.0 in /  0 mm
16:39 11.0 °F /  -11.7 °C 0.7 °F /  -17.4 °C 1018.8 in /  34496.6 hPa SW 5.1 mph /  8.2 km/h 14.0 mph /  22.5 km/h 49 % 0.0 in /  0 mm
16:44 10.9 °F /  -11.7 °C 0.6 °F /  -17.4 °C 1018.8 in /  34496.6 hPa SW 3.1 mph /  5 km/h 7.9 mph /  12.7 km/h 49 % 0.0 in /  0 mm
16:49 10.8 °F /  -11.8 °C 0.5 °F /  -17.5 °C 1018.8 in /  34496.6 hPa SW 3.4 mph /  5.5 km/h 7.9 mph /  12.7 km/h 49 % 0.0 in /  0 mm
16:54 10.7 °F /  -11.8 °C 0.4 °F /  -17.6 °C 1018.8 in /  34496.6 hPa WSW 4.0 mph /  6.4 km/h 6.9 mph /  11.1 km/h 49 % 0.0 in /  0 mm
16:59 10.6 °F /  -11.9 °C 0.6 °F /  -17.4 °C 1018.8 in /  34496.6 hPa WSW 4.2 mph /  6.8 km/h 8.7 mph /  14 km/h 50 % 0.0 in /  0 mm
17:04 10.6 °F /  -11.9 °C 0.6 °F /  -17.4 °C 1018.8 in /  34496.6 hPa WSW 5.5 mph /  8.9 km/h 12.2 mph /  19.6 km/h 50 % 0.0 in /  0 mm
17:09 10.5 °F /  -11.9 °C 0.5 °F /  -17.5 °C 1018.8 in /  34496.6 hPa WSW 5.5 mph /  8.9 km/h 12.2 mph /  19.6 km/h 50 % 0.0 in /  0 mm
17:14 10.3 °F /  -12.1 °C 0.3 °F /  -17.6 °C 1018.8 in /  34496.6 hPa SW 3.7 mph /  6 km/h 6.9 mph /  11.1 km/h 50 % 0.0 in /  0 mm
17:19 10.1 °F /  -12.2 °C 0.1 °F /  -17.7 °C 1018.8 in /  34496.6 hPa SW 3.5 mph /  5.6 km/h 7.9 mph /  12.7 km/h 50 % 0.0 in /  0 mm
17:24 10.0 °F /  -12.2 °C 0.1 °F /  -17.7 °C 1018.8 in /  34496.6 hPa SW 4.0 mph /  6.4 km/h 7.9 mph /  12.7 km/h 50 % 0.0 in /  0 mm
17:29 9.8 °F /  -12.3 °C 0.1 °F /  -17.7 °C 1018.8 in /  34496.6 hPa SW 4.2 mph /  6.8 km/h 6.4 mph /  10.3 km/h 51 % 0.0 in /  0 mm
17:34 9.7 °F /  -12.4 °C 0.1 °F /  -17.7 °C 1018.8 in /  34496.6 hPa SW 4.3 mph /  6.9 km/h 9.7 mph /  15.6 km/h 51 % 0.0 in /  0 mm
17:39 9.6 °F /  -12.4 °C 0.2 °F /  -17.7 °C 1018.8 in /  34496.6 hPa SW 3.9 mph /  6.3 km/h 9.7 mph /  15.6 km/h 52 % 0.0 in /  0 mm
17:44 9.4 °F /  -12.6 °C 0.0 °F /  -17.8 °C 1019.9 in /  34533.8 hPa SW 3.9 mph /  6.3 km/h 8.7 mph /  14 km/h 52 % 0.0 in /  0 mm
17:49 9.4 °F /  -12.6 °C 0.0 °F /  -17.8 °C 1019.9 in /  34533.8 hPa SW 4.0 mph /  6.4 km/h 8.7 mph /  14 km/h 52 % 0.0 in /  0 mm
17:54 9.4 °F /  -12.6 °C 0.3 °F /  -17.6 °C 1019.9 in /  34533.8 hPa SW 4.0 mph /  6.4 km/h 7.6 mph /  12.2 km/h 53 % 0.0 in /  0 mm
17:59 9.3 °F /  -12.6 °C 0.2 °F /  -17.7 °C 1019.9 in /  34533.8 hPa WSW 4.5 mph /  7.2 km/h 9.0 mph /  14.5 km/h 53 % 0.0 in /  0 mm
18:04 9.1 °F /  -12.7 °C 0.0 °F /  -17.8 °C 1019.9 in /  34533.8 hPa WSW 2.9 mph /  4.7 km/h 9.0 mph /  14.5 km/h 53 % 0.0 in /  0 mm
18:09 8.6 °F /  -13 °C -0.2 °F /  -17.9 °C 1019.9 in /  34533.8 hPa WSW 1.6 mph /  2.6 km/h 4.0 mph /  6.4 km/h 54 % 0.0 in /  0 mm
18:14 8.3 °F /  -13.2 °C -0.5 °F /  -18.1 °C 1019.9 in /  34533.8 hPa WNW 1.0 mph /  1.6 km/h 4.0 mph /  6.4 km/h 54 % 0.0 in /  0 mm
18:19 8.0 °F /  -13.3 °C -0.8 °F /  -18.2 °C 1019.9 in /  34533.8 hPa NW 0.2 mph /  0.3 km/h 2.1 mph /  3.4 km/h 54 % 0.0 in /  0 mm
18:24 7.7 °F /  -13.5 °C -0.8 °F /  -18.2 °C 1019.9 in /  34533.8 hPa NW 0.8 mph /  1.3 km/h 3.5 mph /  5.6 km/h 55 % 0.0 in /  0 mm
18:29 7.3 °F /  -13.7 °C -0.9 °F /  -18.3 °C 1019.9 in /  34533.8 hPa WNW 0.8 mph /  1.3 km/h 3.5 mph /  5.6 km/h 56 % 0.0 in /  0 mm
18:34 6.9 °F /  -13.9 °C -1.1 °F /  -18.4 °C 1019.9 in /  34533.8 hPa West 0.2 mph /  0.3 km/h 2.1 mph /  3.4 km/h 57 % 0.0 in /  0 mm
18:39 6.6 °F /  -14.1 °C -1.3 °F /  -18.5 °C 1019.9 in /  34533.8 hPa Calm     57 % 0.0 in /  0 mm
18:44 6.3 °F /  -14.3 °C -1.4 °F /  -18.6 °C 1019.9 in /  34533.8 hPa NW 0.8 mph /  1.3 km/h 6.1 mph /  9.8 km/h 58 % 0.0 in /  0 mm
18:49 6.1 °F /  -14.4 °C -1.6 °F /  -18.7 °C 1019.9 in /  34533.8 hPa NW 1.4 mph /  2.3 km/h 6.1 mph /  9.8 km/h 58 % 0.0 in /  0 mm
18:54 5.7 °F /  -14.6 °C -1.7 °F /  -18.7 °C 1019.9 in /  34533.8 hPa NW 0.8 mph /  1.3 km/h 4.7 mph /  7.6 km/h 59 % 0.0 in /  0 mm
18:59 5.5 °F /  -14.7 °C -1.7 °F /  -18.7 °C 1019.9 in /  34533.8 hPa NW 0.2 mph /  0.3 km/h 3.5 mph /  5.6 km/h 60 % 0.0 in /  0 mm
19:04 5.3 °F /  -14.8 °C -1.8 °F /  -18.8 °C 1019.9 in /  34533.8 hPa NW 0.2 mph /  0.3 km/h 4.0 mph /  6.4 km/h 60 % 0.0 in /  0 mm
19:09 5.0 °F /  -15 °C -1.9 °F /  -18.8 °C 1019.9 in /  34533.8 hPa WNW 0.3 mph /  0.5 km/h 4.0 mph /  6.4 km/h 61 % 0.0 in /  0 mm
19:14 4.9 °F /  -15.1 °C -1.8 °F /  -18.8 °C 1020.9 in /  34567.7 hPa Calm   4.0 mph /  6.4 km/h 62 % 0.0 in /  0 mm
19:19 4.7 °F /  -15.2 °C -1.8 °F /  -18.8 °C 1020.9 in /  34567.7 hPa WNW 0.2 mph /  0.3 km/h 4.0 mph /  6.4 km/h 63 % 0.0 in /  0 mm
19:24 4.5 °F /  -15.3 °C -1.7 °F /  -18.7 °C 1020.9 in /  34567.7 hPa Calm     64 % 0.0 in /  0 mm
19:29 4.3 °F /  -15.4 °C -1.9 °F /  -18.8 °C 1020.9 in /  34567.7 hPa WNW 0.2 mph /  0.3 km/h 1.8 mph /  2.9 km/h 64 % 0.0 in /  0 mm
19:34 4.1 °F /  -15.5 °C -1.9 °F /  -18.8 °C 1020.9 in /  34567.7 hPa WNW 0.2 mph /  0.3 km/h 1.8 mph /  2.9 km/h 65 % 0.0 in /  0 mm
19:39 4.0 °F /  -15.6 °C -2.0 °F /  -18.9 °C 1020.9 in /  34567.7 hPa NW 0.6 mph /  1 km/h 5.0 mph /  8 km/h 65 % 0.0 in /  0 mm
19:44 4.0 °F /  -15.6 °C -1.8 °F /  -18.8 °C 1020.9 in /  34567.7 hPa NW 1.0 mph /  1.6 km/h 5.0 mph /  8 km/h 66 % 0.0 in /  0 mm
19:49 3.8 °F /  -15.7 °C -1.8 °F /  -18.8 °C 1020.9 in /  34567.7 hPa North 0.3 mph /  0.5 km/h   67 % 0.0 in /  0 mm
19:54 3.7 °F /  -15.7 °C -1.9 °F /  -18.8 °C 1020.9 in /  34567.7 hPa Calm     67 % 0.0 in /  0 mm
19:59 3.6 °F /  -15.8 °C -1.8 °F /  -18.8 °C 1020.9 in /  34567.7 hPa Calm   2.6 mph /  4.2 km/h 68 % 0.0 in /  0 mm
20:04 3.5 °F /  -15.8 °C -1.8 °F /  -18.8 °C 1020.9 in /  34567.7 hPa WNW 0.2 mph /  0.3 km/h 2.6 mph /  4.2 km/h 68 % 0.0 in /  0 mm
20:09 3.4 °F /  -15.9 °C -1.8 °F /  -18.8 °C 1020.9 in /  34567.7 hPa WNW 0.5 mph /  0.8 km/h 2.6 mph /  4.2 km/h 69 % 0.0 in /  0 mm
20:14 3.4 °F /  -15.9 °C -1.8 °F /  -18.8 °C 1020.9 in /  34567.7 hPa WNW 0.2 mph /  0.3 km/h 2.6 mph /  4.2 km/h 69 % 0.0 in /  0 mm
20:19 3.4 °F /  -15.9 °C -1.6 °F /  -18.7 °C 1020.9 in /  34567.7 hPa Calm     70 % 0.0 in /  0 mm
20:24 3.3 °F /  -15.9 °C -1.7 °F /  -18.7 °C 1020.9 in /  34567.7 hPa Calm     70 % 0.0 in /  0 mm
20:29 3.3 °F /  -15.9 °C -1.4 °F /  -18.6 °C 1020.9 in /  34567.7 hPa Calm     71 % 0.0 in /  0 mm
20:34 3.2 °F /  -16 °C -1.6 °F /  -18.7 °C 1020.9 in /  34567.7 hPa West 0.3 mph /  0.5 km/h 5.5 mph /  8.9 km/h 71 % 0.0 in /  0 mm
20:39 3.1 °F /  -16.1 °C -1.4 °F /  -18.6 °C 1020.9 in /  34567.7 hPa West 0.6 mph /  1 km/h 5.5 mph /  8.9 km/h 72 % 0.0 in /  0 mm
20:44 3.0 °F /  -16.1 °C -1.6 °F /  -18.7 °C 1020.9 in /  34567.7 hPa NW 1.6 mph /  2.6 km/h 4.7 mph /  7.6 km/h 72 % 0.0 in /  0 mm
20:49 3.0 °F /  -16.1 °C -1.6 °F /  -18.7 °C 1020.9 in /  34567.7 hPa NW 1.6 mph /  2.6 km/h 4.7 mph /  7.6 km/h 72 % 0.0 in /  0 mm
20:54 2.9 °F /  -16.2 °C -1.4 °F /  -18.6 °C 1020.9 in /  34567.7 hPa WNW 0.3 mph /  0.5 km/h 4.0 mph /  6.4 km/h 73 % 0.0 in /  0 mm
20:59 2.8 °F /  -16.2 °C -1.6 °F /  -18.7 °C 1019.9 in /  34533.8 hPa Calm     73 % 0.0 in /  0 mm
21:04 2.7 °F /  -16.3 °C -1.5 °F /  -18.6 °C 1019.9 in /  34533.8 hPa Calm     74 % 0.0 in /  0 mm
21:09 2.6 °F /  -16.3 °C -1.6 °F /  -18.7 °C 1019.9 in /  34533.8 hPa Calm     74 % 0.0 in /  0 mm
21:14 2.5 °F /  -16.4 °C -1.7 °F /  -18.7 °C 1019.9 in /  34533.8 hPa Calm     74 % 0.0 in /  0 mm
21:19 2.5 °F /  -16.4 °C -1.5 °F /  -18.6 °C 1019.9 in /  34533.8 hPa Calm     75 % 0.0 in /  0 mm
21:24 2.4 °F /  -16.4 °C -1.6 °F /  -18.7 °C 1019.9 in /  34533.8 hPa WNW 0.3 mph /  0.5 km/h 4.3 mph /  6.9 km/h 75 % 0.0 in /  0 mm
21:29 2.3 °F /  -16.5 °C -1.7 °F /  -18.7 °C 1019.9 in /  34533.8 hPa WNW 0.3 mph /  0.5 km/h 4.3 mph /  6.9 km/h 75 % 0.0 in /  0 mm
21:34 2.2 °F /  -16.6 °C -1.8 °F /  -18.8 °C 1019.9 in /  34533.8 hPa Calm     75 % 0.0 in /  0 mm
21:39 2.1 °F /  -16.6 °C -1.7 °F /  -18.7 °C 1019.9 in /  34533.8 hPa WSW 0.5 mph /  0.8 km/h 4.7 mph /  7.6 km/h 76 % 0.0 in /  0 mm
21:44 2.0 °F /  -16.7 °C -1.8 °F /  -18.8 °C 1020.9 in /  34567.7 hPa WNW 1.9 mph /  3.1 km/h 4.7 mph /  7.6 km/h 76 % 0.0 in /  0 mm
21:49 2.0 °F /  -16.7 °C -1.8 °F /  -18.8 °C 1020.9 in /  34567.7 hPa NW 3.2 mph /  5.1 km/h 5.5 mph /  8.9 km/h 76 % 0.0 in /  0 mm
21:54 2.1 °F /  -16.6 °C -1.7 °F /  -18.7 °C 1020.9 in /  34567.7 hPa NW 2.1 mph /  3.4 km/h 5.5 mph /  8.9 km/h 76 % 0.0 in /  0 mm
21:59 2.0 °F /  -16.7 °C -1.6 °F /  -18.7 °C 1020.9 in /  34567.7 hPa NW 0.8 mph /  1.3 km/h 4.3 mph /  6.9 km/h 77 % 0.0 in /  0 mm
22:05 2.0 °F /  -16.7 °C -1.6 °F /  -18.7 °C 1020.9 in /  34567.7 hPa NW 0.3 mph /  0.5 km/h 2.6 mph /  4.2 km/h 77 % 0.0 in /  0 mm
22:10 1.9 °F /  -16.7 °C -1.7 °F /  -18.7 °C 1020.9 in /  34567.7 hPa NW 0.3 mph /  0.5 km/h 3.2 mph /  5.1 km/h 77 % 0.0 in /  0 mm
22:15 1.9 °F /  -16.7 °C -1.6 °F /  -18.7 °C 1020.9 in /  34567.7 hPa NW 0.6 mph /  1 km/h 3.2 mph /  5.1 km/h 78 % 0.0 in /  0 mm
22:20 1.9 °F /  -16.7 °C -1.6 °F /  -18.7 °C 1020.9 in /  34567.7 hPa NW 0.3 mph /  0.5 km/h 2.1 mph /  3.4 km/h 78 % 0.0 in /  0 mm
22:25 1.7 °F /  -16.8 °C -1.7 °F /  -18.7 °C 1020.9 in /  34567.7 hPa Calm     78 % 0.0 in /  0 mm
22:30 1.7 °F /  -16.8 °C -1.7 °F /  -18.7 °C 1020.9 in /  34567.7 hPa Calm     78 % 0.0 in /  0 mm
22:35 1.7 °F /  -16.8 °C -1.7 °F /  -18.7 °C 1020.9 in /  34567.7 hPa NW 0.6 mph /  1 km/h 4.3 mph /  6.9 km/h 78 % 0.0 in /  0 mm
22:40 1.7 °F /  -16.8 °C -1.6 °F /  -18.7 °C 1020.9 in /  34567.7 hPa NW 1.0 mph /  1.6 km/h 4.3 mph /  6.9 km/h 79 % 0.0 in /  0 mm
22:45 1.6 °F /  -16.9 °C -1.7 °F /  -18.7 °C 1020.9 in /  34567.7 hPa NNW 0.6 mph /  1 km/h 4.3 mph /  6.9 km/h 79 % 0.0 in /  0 mm
22:50 1.6 °F /  -16.9 °C -1.7 °F /  -18.7 °C 1020.9 in /  34567.7 hPa NW 1.8 mph /  2.9 km/h 5.8 mph /  9.3 km/h 79 % 0.0 in /  0 mm
22:55 1.6 °F /  -16.9 °C -1.7 °F /  -18.7 °C 1020.9 in /  34567.7 hPa NW 1.8 mph /  2.9 km/h 5.8 mph /  9.3 km/h 79 % 0.0 in /  0 mm
23:00 1.6 °F /  -16.9 °C -1.7 °F /  -18.7 °C 1021.9 in /  34601.5 hPa NE 0.5 mph /  0.8 km/h 2.6 mph /  4.2 km/h 79 % 0.0 in /  0 mm
23:05 1.6 °F /  -16.9 °C -1.5 °F /  -18.6 °C 1021.9 in /  34601.5 hPa Calm     80 % 0.0 in /  0 mm
23:10 1.6 °F /  -16.9 °C -1.5 °F /  -18.6 °C 1021.9 in /  34601.5 hPa WNW 0.2 mph /  0.3 km/h 4.0 mph /  6.4 km/h 80 % 0.0 in /  0 mm
23:15 1.5 °F /  -16.9 °C -1.6 °F /  -18.7 °C 1021.9 in /  34601.5 hPa WNW 0.2 mph /  0.3 km/h 4.0 mph /  6.4 km/h 80 % 0.0 in /  0 mm
23:20 1.4 °F /  -17 °C -1.7 °F /  -18.7 °C 1021.9 in /  34601.5 hPa NW 0.2 mph /  0.3 km/h 4.0 mph /  6.4 km/h 80 % 0.0 in /  0 mm
23:25 1.4 °F /  -17 °C -1.5 °F /  -18.6 °C 1021.9 in /  34601.5 hPa NNW 0.5 mph /  0.8 km/h 4.0 mph /  6.4 km/h 81 % 0.0 in /  0 mm
23:30 1.4 °F /  -17 °C -1.5 °F /  -18.6 °C 1021.9 in /  34601.5 hPa NW 0.8 mph /  1.3 km/h 4.3 mph /  6.9 km/h 81 % 0.0 in /  0 mm
23:35 1.4 °F /  -17 °C -1.5 °F /  -18.6 °C 1021.9 in /  34601.5 hPa NW 1.0 mph /  1.6 km/h 4.3 mph /  6.9 km/h 81 % 0.0 in /  0 mm
23:40 1.4 °F /  -17 °C -1.5 °F /  -18.6 °C 1021.9 in /  34601.5 hPa NW 0.5 mph /  0.8 km/h 2.1 mph /  3.4 km/h 81 % 0.0 in /  0 mm
23:45 1.3 °F /  -17.1 °C -1.4 °F /  -18.6 °C 1021.9 in /  34601.5 hPa Calm     82 % 0.0 in /  0 mm
23:50 1.3 °F /  -17.1 °C -1.4 °F /  -18.6 °C 1021.9 in /  34601.5 hPa WNW 0.3 mph /  0.5 km/h 5.5 mph /  8.9 km/h 82 % 0.0 in /  0 mm
23:55 1.3 °F /  -17.1 °C -1.4 °F /  -18.6 °C 1021.9 in /  34601.5 hPa NW 0.8 mph /  1.3 km/h 5.5 mph /  8.9 km/h 82 % 0.0 in /  0 mm
Vremenska postaja Senovo
Podatki zbrani iz Weather Underground - 3 mb

Script developed by  Jim McMurry - jmcmurry@mwt.net Adapted for the template by  Wim van der Kuil - Leuven-Template.eu

Vremenski podatki so objavljeni na:

European Weather Network

WeatherCloud

Weather Underground

AWEKAS

HAMweather, WeatherForYou, PWS Weather

MapView

Geostik

Slovenia weather network

Oprema, ki se uporablja:

Vremenski program
Cumulus

Vremenski server
Asus

Cumulus

Asus